Time;durP1;ratioP1;P1;durP2;ratioP2;P2;SDS_P1;SDS_P2;PMS_P1;PMS_P2;Temp;Humidity;BMP_temperature;BMP_pressure;BME280_temperature;BME280_humidity;BME280_pressure;Samples;Min_cycle;Max_cycle;Signal;HPM_P1;HPM_P2
2022/04/23 08:24:30;;;;;;;47.45;34.05;;;;;;;;;;6215051;23;20032;-77
2022/04/23 09:52:38;;;;;;;43.25;32.47;;;;;;;;;;6188312;23;20046;-80
2022/04/23 09:55:07;;;;;;;44.20;31.45;;;;;;;;;;6216339;23;20087;-81
2022/04/23 09:57:32;;;;;;;44.00;31.15;;;;;;;;;;6216390;23;20004;-81
2022/04/23 09:59:58;;;;;;;43.70;30.20;;;;;;;;;;6215924;23;20416;-81
2022/04/23 10:02:24;;;;;;;41.50;30.98;;;;;;;;;;6216155;23;20008;-83
2022/04/23 10:04:50;;;;;;;38.92;27.52;;;;;;;;;;6216286;23;20075;-85
2022/04/23 10:07:17;;;;;;;40.75;29.27;;;;;;;;;;6215988;23;20051;-85
2022/04/23 10:09:48;;;;;;;43.42;29.05;;;;;;;;;;6216416;23;20454;-85
2022/04/23 10:12:18;;;;;;;38.60;26.98;;;;;;;;;;6216242;23;20371;-83
2022/04/23 10:14:52;;;;;;;40.78;28.35;;;;;;;;;;6215977;23;20008;-83
2022/04/23 10:17:20;;;;;;;37.05;26.70;;;;;;;;;;6189188;23;20071;-87
2022/04/23 10:19:47;;;;;;;38.83;28.55;;;;;;;;;;6216340;23;20011;-84
2022/04/23 10:22:21;;;;;;;38.50;28.08;;;;;;;;;;6216453;23;20034;-81
2022/04/23 10:25:17;;;;;;;39.58;27.25;;;;;;;;;;6215914;23;20005;-84
2022/04/23 10:27:45;;;;;;;39.55;27.75;;;;;;;;;;6189250;23;20008;-83
2022/04/23 10:30:12;;;;;;;41.45;29.40;;;;;;;;;;6216363;23;20087;-86
2022/04/23 10:32:41;;;;;;;41.38;29.40;;;;;;;;;;6215953;23;20004;-82
2022/04/23 10:35:19;;;;;;;42.15;29.30;;;;;;;;;;6217357;23;20004;-93
2022/04/23 10:37:48;;;;;;;37.90;27.70;;;;;;;;;;6224074;23;20080;-89
2022/04/23 10:40:18;;;;;;;42.38;29.88;;;;;;;;;;6216408;23;20011;-83
2022/04/23 10:43:02;;;;;;;;;;;;;;;;;;6191558;23;20012;-82
2022/04/23 10:45:35;;;;;;;37.25;27.83;;;;;;;;;;6218026;23;20037;-82
2022/04/23 10:48:25;;;;;;;40.25;28.27;;;;;;;;;;6217803;23;20005;-83
2022/04/23 10:51:10;;;;;;;41.03;29.80;;;;;;;;;;6217550;23;20544;-84
2022/04/23 10:53:38;;;;;;;41.03;28.30;;;;;;;;;;6217601;23;20076;-87
2022/04/23 10:56:11;;;;;;;37.67;27.67;;;;;;;;;;6216155;23;20020;-84
2022/04/23 10:58:43;;;;;;;39.95;27.42;;;;;;;;;;6191350;23;20450;-85
2022/04/23 11:01:25;;;;;;;38.15;27.95;;;;;;;;;;6217662;23;20471;-83
2022/04/23 11:04:05;;;;;;;38.30;26.95;;;;;;;;;;6218199;23;20004;-83
2022/04/23 11:12:23;;;;;;;34.70;25.83;;;;;;;;;;6218580;23;20431;-83
2022/04/23 11:14:55;;;;;;;35.75;26.70;;;;;;;;;;6218130;23;20123;-83
2022/04/23 11:17:44;;;;;;;35.45;25.92;;;;;;;;;;6217737;23;20379;-85
2022/04/23 11:20:10;;;;;;;;;;;;;;;;;;6206353;23;20039;-84
2022/04/23 11:22:37;;;;;;;36.63;25.88;;;;;;;;;;6217660;23;20239;-83
2022/04/23 11:25:02;;;;;;;35.55;25.55;;;;;;;;;;6218124;23;20076;-82
2022/04/23 11:27:32;;;;;;;31.05;24.05;;;;;;;;;;6217427;23;20388;-81
2022/04/23 11:29:58;;;;;;;31.58;24.92;;;;;;;;;;6216613;23;20447;-81
2022/04/23 11:32:29;;;;;;;31.50;23.77;;;;;;;;;;6217267;23;20004;-82
2022/04/23 11:34:58;;;;;;;30.65;22.85;;;;;;;;;;6217608;23;20063;-81
2022/04/23 11:37:39;;;;;;;32.78;23.40;;;;;;;;;;6217156;23;20007;-82
2022/04/23 11:40:17;;;;;;;32.97;24.98;;;;;;;;;;6217302;23;20442;-82
2022/04/23 11:42:44;;;;;;;34.15;23.98;;;;;;;;;;6216635;23;20009;-80
2022/04/23 11:45:16;;;;;;;31.80;24.25;;;;;;;;;;6217506;23;20027;-82
2022/04/23 11:47:41;;;;;;;30.08;22.67;;;;;;;;;;6217292;23;20004;-82
2022/04/23 11:50:23;;;;;;;26.35;20.90;;;;;;;;;;6190527;23;20008;-82
2022/04/23 11:53:03;;;;;;;28.27;20.98;;;;;;;;;;6185134;23;20021;-82
2022/04/23 11:55:32;;;;;;;28.20;20.73;;;;;;;;;;6187063;23;20428;-82
2022/04/23 11:58:00;;;;;;;31.23;22.08;;;;;;;;;;6187226;23;20060;-82
2022/04/23 12:00:27;;;;;;;27.80;21.45;;;;;;;;;;6185372;23;20064;-83
2022/04/23 12:02:53;;;;;;;28.10;21.63;;;;;;;;;;6187145;23;19997;-80
2022/04/23 12:05:30;;;;;;;29.88;23.33;;;;;;;;;;6187072;23;20063;-82
2022/04/23 12:07:56;;;;;;;27.63;21.65;;;;;;;;;;6186737;23;20001;-81
2022/04/23 12:10:27;;;;;;;27.10;21.08;;;;;;;;;;6187257;23;20005;-81
2022/04/23 12:12:53;;;;;;;26.20;19.45;;;;;;;;;;6187408;23;20084;-81
2022/04/23 12:15:22;;;;;;;25.10;19.85;;;;;;;;;;6187156;23;20001;-81
2022/04/23 12:17:54;;;;;;;24.98;19.17;;;;;;;;;;6186911;23;20038;-82
2022/04/23 12:20:21;;;;;;;22.63;17.88;;;;;;;;;;6186899;23;20328;-81
2022/04/23 12:23:05;;;;;;;24.17;18.83;;;;;;;;;;6186712;23;20016;-81
2022/04/23 12:25:31;;;;;;;20.80;16.92;;;;;;;;;;6186696;23;20063;-82
2022/04/23 12:28:03;;;;;;;22.48;17.60;;;;;;;;;;6187004;23;20005;-82
2022/04/23 12:42:04;;;;;;;24.08;16.40;;;;;;;;;;6186400;23;20524;-82
2022/04/23 12:44:43;;;;;;;20.63;16.75;;;;;;;;;;6186914;23;20039;-82
2022/04/23 12:47:13;;;;;;;21.85;17.08;;;;;;;;;;6186724;23;20051;-81
2022/04/23 12:49:54;;;;;;;24.45;16.80;;;;;;;;;;6186948;23;20374;-81
2022/04/23 12:52:21;;;;;;;22.45;16.05;;;;;;;;;;6205351;23;20008;-82
2022/04/23 12:55:12;;;;;;;21.50;16.90;;;;;;;;;;6216718;23;20040;-82
2022/04/23 12:57:42;;;;;;;20.00;15.50;;;;;;;;;;6216614;23;20001;-83
2022/04/23 13:00:09;;;;;;;18.63;15.30;;;;;;;;;;6216780;23;20095;-82
2022/04/23 13:02:39;;;;;;;18.65;14.85;;;;;;;;;;6216992;23;20079;-81
2022/04/23 13:05:07;;;;;;;21.92;15.65;;;;;;;;;;6216493;23;20007;-81
2022/04/23 13:10:19;;;;;;;21.85;16.50;;;;;;;;;;6216412;23;20150;-82
2022/04/23 13:12:44;;;;;;;18.88;15.80;;;;;;;;;;6216391;23;20044;-82
2022/04/23 13:15:11;;;;;;;20.20;14.98;;;;;;;;;;6216645;23;20070;-80
2022/04/23 13:17:38;;;;;;;18.83;14.15;;;;;;;;;;6216680;23;20004;-81
2022/04/23 13:20:10;;;;;;;19.08;14.23;;;;;;;;;;6216685;23;20050;-83
2022/04/23 13:22:36;;;;;;;17.85;14.13;;;;;;;;;;6216601;23;20051;-82
2022/04/23 13:25:04;;;;;;;16.75;13.13;;;;;;;;;;6216658;23;19997;-81
2022/04/23 13:27:31;;;;;;;16.90;12.48;;;;;;;;;;6216965;23;20077;-79
2022/04/23 13:29:59;;;;;;;21.58;14.07;;;;;;;;;;6218657;23;20449;-86
2022/04/23 13:32:25;;;;;;;15.15;12.35;;;;;;;;;;6217752;23;20001;-80
2022/04/23 13:34:51;;;;;;;15.65;12.80;;;;;;;;;;6216831;23;20071;-79
2022/04/23 13:37:17;;;;;;;16.20;13.52;;;;;;;;;;6216836;23;20000;-80
2022/04/23 13:39:43;;;;;;;16.08;12.23;;;;;;;;;;6218475;23;20419;-78
2022/04/23 13:42:08;;;;;;;14.07;11.48;;;;;;;;;;6218465;23;20039;-80
2022/04/23 13:44:34;;;;;;;14.27;12.02;;;;;;;;;;6218150;23;20015;-81
2022/04/23 13:47:01;;;;;;;16.70;12.70;;;;;;;;;;6219372;23;19997;-78
2022/04/23 13:49:27;;;;;;;15.55;11.60;;;;;;;;;;6216663;23;20008;-78
2022/04/23 13:51:52;;;;;;;13.73;11.25;;;;;;;;;;6216219;23;20039;-78
2022/04/23 13:54:18;;;;;;;14.23;10.80;;;;;;;;;;6216141;23;20008;-78
2022/04/23 13:56:44;;;;;;;14.45;11.15;;;;;;;;;;6216464;23;20027;-78
2022/04/23 13:59:12;;;;;;;16.23;12.27;;;;;;;;;;6216434;23;20005;-78
2022/04/23 14:01:38;;;;;;;15.73;12.80;;;;;;;;;;6216116;23;20005;-79
2022/04/23 17:23:04;;;;;;;4.75;4.28;;;;;;;;;;6195061;23;20027;-77
2022/04/23 17:25:30;;;;;;;6.35;4.82;;;;;;;;;;6215595;23;20016;-76
2022/04/23 17:27:56;;;;;;;7.25;5.90;;;;;;;;;;6216307;23;20004;-77
2022/04/23 17:30:22;;;;;;;8.20;6.25;;;;;;;;;;6216336;23;20028;-78
2022/04/23 17:32:48;;;;;;;5.93;5.20;;;;;;;;;;6216138;23;20010;-77
2022/04/23 17:35:14;;;;;;;8.40;5.13;;;;;;;;;;6216310;23;20001;-77
2022/04/23 17:37:40;;;;;;;6.93;5.38;;;;;;;;;;6216094;23;20011;-77
2022/04/23 17:40:09;;;;;;;7.57;6.07;;;;;;;;;;6216173;23;20004;-77
2022/04/23 17:42:35;;;;;;;8.32;6.65;;;;;;;;;;6216031;23;20009;-77
2022/04/23 17:45:03;;;;;;;9.63;8.13;;;;;;;;;;6216454;23;20055;-76
2022/04/23 17:47:28;;;;;;;10.20;8.65;;;;;;;;;;6216134;23;20001;-76
2022/04/23 17:49:54;;;;;;;11.82;7.43;;;;;;;;;;6216540;23;20001;-77
2022/04/23 17:52:21;;;;;;;12.13;7.72;;;;;;;;;;6216294;23;20095;-77
2022/04/23 17:54:46;;;;;;;10.82;6.65;;;;;;;;;;6216564;23;20012;-79
2022/04/23 17:57:12;;;;;;;9.23;6.68;;;;;;;;;;6216264;23;20000;-79
2022/04/23 18:07:23;;;;;;;9.23;7.43;;;;;;;;;;6216388;23;20012;-80
2022/04/23 18:07:51;;;;;;;8.88;6.70;;;;;;;;;;6216166;23;20037;-79
2022/04/23 18:10:49;;;;;;;7.97;6.57;;;;;;;;;;6215873;23;20005;-81
2022/04/23 18:13:02;;;;;;;9.27;6.18;;;;;;;;;;6215856;23;20416;-84
2022/04/23 18:15:27;;;;;;;7.05;5.88;;;;;;;;;;6216031;23;20008;-80
2022/04/23 18:17:52;;;;;;;9.57;7.70;;;;;;;;;;6215928;23;20004;-79
2022/04/23 18:20:18;;;;;;;9.63;7.43;;;;;;;;;;6215922;23;20004;-81
2022/04/23 18:22:43;;;;;;;10.73;8.13;;;;;;;;;;6216086;23;20375;-81
2022/04/23 18:25:09;;;;;;;9.93;7.35;;;;;;;;;;6215674;23;20008;-80
2022/04/23 18:27:34;;;;;;;8.80;7.07;;;;;;;;;;6215894;23;20007;-80
2022/04/23 18:30:00;;;;;;;8.57;6.53;;;;;;;;;;6216058;23;20009;-81
2022/04/23 18:32:25;;;;;;;5.68;5.18;;;;;;;;;;6215794;23;20055;-79
2022/04/23 18:34:52;;;;;;;6.78;3.97;;;;;;;;;;6215680;23;20008;-81
2022/04/23 18:37:17;;;;;;;4.78;3.83;;;;;;;;;;6216199;23;20005;-81
2022/04/23 18:39:43;;;;;;;5.18;3.25;;;;;;;;;;6216043;23;20474;-80
2022/04/23 18:42:08;;;;;;;3.72;3.00;;;;;;;;;;6215944;23;20469;-82
2022/04/23 18:44:34;;;;;;;3.92;3.35;;;;;;;;;;6215866;23;20005;-81
2022/04/23 18:47:00;;;;;;;4.60;3.97;;;;;;;;;;6216254;23;20015;-80
2022/04/23 18:49:25;;;;;;;4.63;3.30;;;;;;;;;;6214926;23;20055;-81
2022/04/23 18:51:51;;;;;;;4.45;3.58;;;;;;;;;;6215644;23;20004;-82
2022/04/23 18:54:16;;;;;;;5.50;3.75;;;;;;;;;;6216264;23;20416;-83
2022/04/23 18:56:42;;;;;;;4.13;3.40;;;;;;;;;;6188954;23;20039;-80
2022/04/23 18:59:08;;;;;;;3.00;2.70;;;;;;;;;;6215682;23;20494;-80
2022/04/23 19:01:34;;;;;;;4.38;2.60;;;;;;;;;;6189769;23;20005;-80
2022/04/23 19:04:00;;;;;;;3.58;2.88;;;;;;;;;;6217775;23;20320;-80
2022/04/23 19:06:26;;;;;;;3.38;3.08;;;;;;;;;;6217540;23;20004;-80
2022/04/23 19:08:51;;;;;;;8.80;4.68;;;;;;;;;;6217395;23;20466;-81
2022/04/23 19:11:18;;;;;;;3.20;2.90;;;;;;;;;;6217446;23;20428;-80
2022/04/23 19:13:45;;;;;;;4.88;3.50;;;;;;;;;;6217530;23;20004;-80
2022/04/23 19:16:10;;;;;;;3.53;3.08;;;;;;;;;;6217800;23;20004;-80
2022/04/23 19:18:36;;;;;;;4.43;4.03;;;;;;;;;;6217361;23;20420;-80
2022/04/23 19:29:14;;;;;;;3.90;3.60;;;;;;;;;;6217898;23;20188;-81
2022/04/23 19:31:40;;;;;;;5.13;4.38;;;;;;;;;;6217281;23;20432;-81
2022/04/23 19:34:06;;;;;;;5.75;4.82;;;;;;;;;;6217959;23;20000;-80
2022/04/23 19:36:38;;;;;;;6.93;4.60;;;;;;;;;;6217678;23;20066;-81
2022/04/23 19:39:10;;;;;;;8.75;7.05;;;;;;;;;;6190394;23;20012;-80
2022/04/23 19:41:37;;;;;;;4.60;3.53;;;;;;;;;;6216790;23;20040;-80
2022/04/23 19:44:03;;;;;;;8.23;5.38;;;;;;;;;;6217185;23;20062;-81
2022/04/23 19:46:30;;;;;;;11.95;10.80;;;;;;;;;;6217348;23;20323;-81
2022/04/23 19:48:55;;;;;;;8.55;7.13;;;;;;;;;;6216900;23;20005;-81
2022/04/23 19:51:22;;;;;;;16.75;15.20;;;;;;;;;;6217198;23;20011;-82
2022/04/23 19:53:48;;;;;;;14.20;12.80;;;;;;;;;;6217165;23;20012;-80
2022/04/23 19:56:14;;;;;;;7.38;6.07;;;;;;;;;;6216933;23;20008;-79
2022/04/23 19:58:41;;;;;;;6.72;4.22;;;;;;;;;;6217159;23;20008;-80
2022/04/23 20:01:10;;;;;;;7.95;5.35;;;;;;;;;;6217125;23;20320;-80
2022/04/23 20:03:36;;;;;;;7.70;4.70;;;;;;;;;;6217019;23;20012;-80
2022/04/23 20:06:02;;;;;;;6.90;4.10;;;;;;;;;;6217136;23;19997;-80
2022/04/23 20:08:28;;;;;;;3.55;3.22;;;;;;;;;;6216959;23;20016;-80
2022/04/23 20:10:54;;;;;;;6.05;4.55;;;;;;;;;;6216917;23;20001;-80
2022/04/23 20:13:19;;;;;;;4.90;3.72;;;;;;;;;;6216545;23;20067;-81
2022/04/23 20:15:45;;;;;;;5.57;4.10;;;;;;;;;;6216807;23;20005;-81
2022/04/23 20:18:11;;;;;;;3.95;3.50;;;;;;;;;;6217117;23;20023;-80
2022/04/23 20:20:37;;;;;;;4.38;3.63;;;;;;;;;;6216767;23;20000;-80
2022/04/23 20:23:04;;;;;;;7.82;3.60;;;;;;;;;;6217194;23;20094;-80
2022/04/23 20:25:30;;;;;;;3.90;3.47;;;;;;;;;;6216403;23;20019;-81
2022/04/23 20:27:56;;;;;;;4.88;3.40;;;;;;;;;;6216730;23;20000;-80
2022/04/23 20:30:23;;;;;;;4.22;3.42;;;;;;;;;;6216715;23;20070;-80
2022/04/23 20:32:49;;;;;;;5.45;4.78;;;;;;;;;;6216606;23;20005;-81
2022/04/23 20:38:13;;;;;;;9.25;7.97;;;;;;;;;;6216650;23;20435;-81
2022/04/23 20:40:40;;;;;;;13.10;11.75;;;;;;;;;;6216592;23;20008;-81
2022/04/23 20:43:07;;;;;;;9.82;8.82;;;;;;;;;;6216370;23;20039;-80
2022/04/23 20:45:35;;;;;;;9.98;8.18;;;;;;;;;;6216900;23;20008;-80
2022/04/23 20:48:02;;;;;;;7.75;6.95;;;;;;;;;;6216392;23;20427;-80
2022/04/23 20:50:28;;;;;;;7.90;7.10;;;;;;;;;;6189561;23;20016;-80
2022/04/23 20:53:12;;;;;;;6.10;5.50;;;;;;;;;;6216558;23;20008;-80
2022/04/23 20:55:38;;;;;;;6.88;6.13;;;;;;;;;;6215830;23;20369;-81
2022/04/23 20:58:04;;;;;;;5.22;4.72;;;;;;;;;;6215315;23;20019;-81
2022/04/23 21:00:30;;;;;;;5.45;3.92;;;;;;;;;;6216097;23;20323;-83
2022/04/23 21:02:56;;;;;;;5.03;4.10;;;;;;;;;;6216384;23;20028;-81
2022/04/23 21:05:22;;;;;;;6.10;3.40;;;;;;;;;;6216038;23;20004;-81
2022/04/23 21:07:48;;;;;;;3.17;2.88;;;;;;;;;;6215966;23;20001;-80
2022/04/23 21:10:13;;;;;;;5.00;3.53;;;;;;;;;;6216095;23;20028;-81
2022/04/23 21:12:39;;;;;;;4.15;3.20;;;;;;;;;;6189598;23;20038;-81
2022/04/23 21:15:06;;;;;;;5.20;3.80;;;;;;;;;;6216143;23;20047;-80
2022/04/23 21:17:33;;;;;;;4.80;3.58;;;;;;;;;;6216044;23;20005;-81
2022/04/23 21:19:58;;;;;;;3.97;3.47;;;;;;;;;;6215913;23;20071;-80
2022/04/23 21:22:24;;;;;;;4.25;3.83;;;;;;;;;;6216121;23;20439;-80
2022/04/23 21:24:50;;;;;;;4.60;3.83;;;;;;;;;;6215546;23;20016;-80
2022/04/23 21:27:16;;;;;;;6.63;5.53;;;;;;;;;;6216048;23;20063;-81
2022/04/23 21:29:41;;;;;;;5.53;4.70;;;;;;;;;;6189221;23;20054;-80
2022/04/23 21:32:09;;;;;;;5.43;3.97;;;;;;;;;;6189421;23;20058;-82
2022/04/23 21:34:36;;;;;;;6.70;4.20;;;;;;;;;;6189313;23;20428;-80
2022/04/23 21:37:01;;;;;;;6.25;5.50;;;;;;;;;;6216070;23;20301;-82
2022/04/23 21:39:26;;;;;;;7.35;3.88;;;;;;;;;;6216637;23;20008;-82
2022/04/23 21:44:52;;;;;;;7.10;4.63;;;;;;;;;;6216104;23;20083;-81
2022/04/23 21:47:18;;;;;;;7.88;5.75;;;;;;;;;;6215950;23;20404;-82
2022/04/23 21:49:44;;;;;;;8.10;6.60;;;;;;;;;;6215637;23;20028;-82
2022/04/23 21:52:10;;;;;;;6.82;5.70;;;;;;;;;;6189101;23;20329;-82
2022/04/23 21:54:35;;;;;;;5.95;4.90;;;;;;;;;;6189082;23;20005;-81
2022/04/23 21:57:01;;;;;;;4.72;3.90;;;;;;;;;;6215817;23;20003;-81
2022/04/23 21:59:27;;;;;;;5.18;3.85;;;;;;;;;;6215869;23;20012;-80
2022/04/23 22:01:53;;;;;;;7.55;3.65;;;;;;;;;;6215367;23;20009;-81
